Time;durP1;ratioP1;P1;durP2;ratioP2;P2;SDS_P1;SDS_P2;PMS_P1;PMS_P2;Temp;Humidity;BMP_temperature;BMP_pressure;BME280_temperature;BME280_humidity;BME280_pressure;Samples;Min_cycle;Max_cycle;Signal;HPM_P1;HPM_P2
2021/03/29 00:00:01;;;;;;;5.27;1.50;;;7.90;71.70;;;;;;5093227;28;20832;-81
2021/03/29 00:02:27;;;;;;;3.50;1.40;;;7.90;70.60;;;;;;5093101;28;20482;-81
2021/03/29 00:04:54;;;;;;;3.57;2.10;;;7.90;70.70;;;;;;5092607;28;20875;-81
2021/03/29 00:07:21;;;;;;;4.40;2.10;;;7.90;71.20;;;;;;5092814;28;20440;-81
2021/03/29 00:09:48;;;;;;;5.37;2.20;;;7.90;70.20;;;;;;5093011;28;20436;-81
2021/03/29 00:12:16;;;;;;;2.10;1.80;;;7.90;69.50;;;;;;5095571;28;20432;-81
2021/03/29 00:14:43;;;;;;;3.13;2.00;;;7.90;69.40;;;;;;5096939;28;20436;-80
2021/03/29 00:17:12;;;;;;;2.87;1.60;;;8.00;68.50;;;;;;5096714;28;20439;-81
2021/03/29 00:19:39;;;;;;;1.83;1.43;;;8.10;68.30;;;;;;5096790;28;20540;-81
2021/03/29 00:22:06;;;;;;;2.20;2.00;;;8.20;68.00;;;;;;5096575;28;20794;-81
2021/03/29 00:24:34;;;;;;;3.43;1.90;;;8.20;67.40;;;;;;5096812;28;20451;-81
2021/03/29 00:27:01;;;;;;;2.20;2.00;;;8.20;67.60;;;;;;5096241;28;20432;-81
2021/03/29 00:29:28;;;;;;;5.13;2.00;;;8.20;67.00;;;;;;5096451;28;20571;-81
2021/03/29 00:31:56;;;;;;;2.97;1.80;;;8.20;66.50;;;;;;5096475;28;20443;-81
2021/03/29 00:34:23;;;;;;;2.80;2.10;;;8.30;66.60;;;;;;5096422;28;20439;-81
2021/03/29 00:36:52;;;;;;;2.20;2.00;;;8.30;66.70;;;;;;5096109;28;20440;-82
2021/03/29 00:39:20;;;;;;;2.13;1.60;;;8.30;66.30;;;;;;5096354;28;20510;-81
2021/03/29 00:41:47;;;;;;;2.33;1.57;;;8.20;66.50;;;;;;5096100;28;20848;-81
2021/03/29 00:44:15;;;;;;;2.40;1.73;;;8.20;67.80;;;;;;5096208;28;20564;-81
2021/03/29 00:46:42;;;;;;;3.20;2.03;;;8.20;67.70;;;;;;5095950;28;20540;-81
2021/03/29 00:49:09;;;;;;;2.87;1.80;;;8.20;67.20;;;;;;5096109;28;20471;-82
2021/03/29 00:51:39;;;;;;;1.47;1.37;;;8.10;68.60;;;;;;5095746;28;20451;-81
2021/03/29 00:54:07;;;;;;;1.80;1.70;;;8.10;68.40;;;;;;5095905;28;20981;-81
2021/03/29 00:56:35;;;;;;;1.90;1.80;;;8.10;69.70;;;;;;5096151;28;20493;-81
2021/03/29 00:59:04;;;;;;;3.57;2.10;;;8.00;69.80;;;;;;5096062;28;20847;-81
2021/03/29 01:01:38;;;;;;;2.00;1.87;;;8.00;71.30;;;;;;5096152;28;20440;-81
2021/03/29 01:04:05;;;;;;;4.70;2.00;;;7.90;71.00;;;;;;5096055;28;20443;-81
2021/03/29 01:06:35;;;;;;;3.43;2.20;;;7.80;71.00;;;;;;5096116;28;20451;-81
2021/03/29 01:09:05;;;;;;;5.33;2.07;;;7.70;72.00;;;;;;5095846;28;20454;-81
2021/03/29 01:11:34;;;;;;;2.23;2.00;;;7.60;71.80;;;;;;5095788;28;20447;-81
2021/03/29 01:14:04;;;;;;;2.33;1.60;;;7.60;71.90;;;;;;5095786;28;20988;-81
2021/03/29 01:16:33;;;;;;;2.30;1.57;;;7.60;72.40;;;;;;5095631;28;20451;-81
2021/03/29 01:19:01;;;;;;;2.33;2.03;;;7.50;72.90;;;;;;5095442;28;20490;-81
2021/03/29 01:21:45;;;;;;;2.67;1.73;;;7.40;72.80;;;;;;5096111;28;20513;-81
2021/03/29 01:24:19;;;;;;;3.93;1.90;;;7.40;72.60;;;;;;5094794;28;20429;-81
2021/03/29 01:26:48;;;;;;;1.53;1.40;;;7.30;72.50;;;;;;5095563;28;20435;-81
2021/03/29 01:29:15;;;;;;;1.90;1.80;;;7.30;73.10;;;;;;5095142;28;20971;-82
2021/03/29 01:31:42;;;;;;;2.60;1.83;;;7.30;73.30;;;;;;5095117;28;21008;-81
2021/03/29 01:34:12;;;;;;;1.60;1.37;;;7.30;72.80;;;;;;5095169;28;20433;-81
2021/03/29 01:36:39;;;;;;;4.43;1.60;;;7.20;73.00;;;;;;5095194;28;20961;-81
2021/03/29 01:39:07;;;;;;;4.03;1.83;;;7.20;73.30;;;;;;5094768;28;20482;-81
2021/03/29 01:41:35;;;;;;;2.30;1.50;;;7.20;71.70;;;;;;5095305;28;20448;-81
2021/03/29 01:44:03;;;;;;;2.30;1.53;;;7.10;73.60;;;;;;5095136;28;20448;-81
2021/03/29 01:46:29;;;;;;;2.10;2.00;;;7.10;73.30;;;;;;5094859;28;20521;-81
2021/03/29 01:48:56;;;;;;;2.13;1.93;;;7.00;73.80;;;;;;5094932;28;20793;-81
2021/03/29 01:51:24;;;;;;;3.53;2.30;;;6.90;75.10;;;;;;5094912;28;20443;-80
2021/03/29 01:53:51;;;;;;;2.80;2.27;;;6.90;75.90;;;;;;5095047;28;20872;-81
2021/03/29 01:56:17;;;;;;;3.80;1.80;;;6.90;77.60;;;;;;5094798;28;20452;-81
2021/03/29 01:58:43;;;;;;;2.10;2.00;;;6.90;77.80;;;;;;5095213;28;20487;-81
2021/03/29 02:01:13;;;;;;;2.50;2.30;;;6.80;77.10;;;;;;5094403;28;20957;-81
2021/03/29 02:03:41;;;;;;;5.40;4.33;;;6.70;77.00;;;;;;5094433;28;20962;-81
2021/03/29 02:06:08;;;;;;;3.60;2.23;;;6.70;77.90;;;;;;5095102;28;20837;-81
2021/03/29 02:08:36;;;;;;;1.90;1.80;;;6.70;78.00;;;;;;5094741;28;20486;-80
2021/03/29 02:11:04;;;;;;;2.80;2.03;;;6.60;78.40;;;;;;5094532;28;20444;-80
2021/03/29 02:13:33;;;;;;;2.80;1.80;;;6.50;78.30;;;;;;5094321;28;20498;-80
2021/03/29 02:16:03;;;;;;;2.47;1.63;;;6.50;78.40;;;;;;5094268;28;20957;-81
2021/03/29 02:18:32;;;;;;;1.70;1.60;;;6.50;78.90;;;;;;5094343;28;20512;-80
2021/03/29 02:21:00;;;;;;;2.50;2.30;;;6.40;79.00;;;;;;5094131;28;20432;-81
2021/03/29 02:23:28;;;;;;;2.50;1.67;;;6.40;79.30;;;;;;5094460;28;20448;-81
2021/03/29 02:25:56;;;;;;;2.53;1.83;;;6.40;79.40;;;;;;5094230;28;20439;-81
2021/03/29 02:28:22;;;;;;;2.70;1.90;;;6.40;79.90;;;;;;5094199;28;20456;-81
2021/03/29 02:30:49;;;;;;;3.67;1.83;;;6.40;80.50;;;;;;5094232;28;20446;-81
2021/03/29 02:33:17;;;;;;;3.07;2.17;;;6.40;81.40;;;;;;5094160;28;20780;-81
2021/03/29 02:35:46;;;;;;;2.60;1.83;;;6.40;81.70;;;;;;5093802;28;20516;-81
2021/03/29 02:38:14;;;;;;;1.97;1.83;;;6.40;81.70;;;;;;5093977;28;20479;-81
2021/03/29 02:40:42;;;;;;;5.07;2.30;;;6.40;81.90;;;;;;5093961;28;20951;-80
2021/03/29 02:43:10;;;;;;;2.93;2.07;;;6.30;83.80;;;;;;5093770;28;20444;-81
2021/03/29 02:45:41;;;;;;;2.73;2.07;;;6.30;84.00;;;;;;5093656;28;20921;-81
2021/03/29 02:48:12;;;;;;;3.77;2.03;;;6.30;84.80;;;;;;5093994;28;20471;-81
2021/03/29 02:50:43;;;;;;;2.23;2.00;;;6.30;84.30;;;;;;5094136;28;20420;-81
2021/03/29 02:53:13;;;;;;;3.63;1.80;;;6.30;84.80;;;;;;5093550;28;20900;-81
2021/03/29 02:55:39;;;;;;;1.90;1.80;;;6.20;84.70;;;;;;5093757;28;20818;-81
2021/03/29 02:58:07;;;;;;;3.37;1.80;;;6.20;81.40;;;;;;5093264;28;20462;-81
2021/03/29 03:00:36;;;;;;;1.90;1.70;;;6.30;82.90;;;;;;5093505;28;20452;-81
2021/03/29 03:03:04;;;;;;;2.10;1.70;;;6.40;81.00;;;;;;5093767;28;20451;-81
2021/03/29 03:05:31;;;;;;;1.93;1.73;;;6.40;82.10;;;;;;5093524;28;20440;-81
2021/03/29 03:07:58;;;;;;;2.57;1.53;;;6.40;79.70;;;;;;5093560;28;20448;-81
2021/03/29 03:10:27;;;;;;;1.97;1.77;;;6.40;79.20;;;;;;5093515;28;20452;-81
2021/03/29 03:12:56;;;;;;;1.50;1.40;;;6.50;78.60;;;;;;5093348;28;20432;-81
2021/03/29 03:15:24;;;;;;;10.03;2.10;;;6.60;76.40;;;;;;5093541;28;20444;-81
2021/03/29 03:17:54;;;;;;;1.60;1.50;;;6.60;76.20;;;;;;5093843;28;20829;-81
2021/03/29 03:20:21;;;;;;;2.63;1.63;;;6.80;75.40;;;;;;5094163;28;20468;-81
2021/03/29 03:22:53;;;;;;;1.73;1.63;;;6.80;76.10;;;;;;5093068;28;20497;-80
2021/03/29 03:25:22;;;;;;;2.13;1.20;;;6.90;76.00;;;;;;5093362;28;20440;-81
2021/03/29 03:27:49;;;;;;;2.90;1.50;;;6.90;75.40;;;;;;5093603;28;20480;-81
2021/03/29 03:30:21;;;;;;;2.60;1.50;;;6.80;75.20;;;;;;5093131;28;20505;-81
2021/03/29 03:32:48;;;;;;;2.10;1.37;;;6.80;75.70;;;;;;5093353;28;20515;-81
2021/03/29 03:35:16;;;;;;;4.43;1.87;;;6.80;74.00;;;;;;5093030;28;20448;-81
2021/03/29 03:37:48;;;;;;;1.87;1.60;;;6.80;74.70;;;;;;5093721;28;20522;-81
2021/03/29 03:40:17;;;;;;;1.60;1.50;;;6.80;74.80;;;;;;5093513;28;20475;-80
2021/03/29 03:42:43;;;;;;;1.73;1.10;;;6.80;73.80;;;;;;5092969;28;20439;-80
2021/03/29 03:45:12;;;;;;;3.97;2.40;;;6.80;73.80;;;;;;5092951;28;20428;-81
2021/03/29 03:47:40;;;;;;;1.93;1.50;;;6.80;75.50;;;;;;5096357;28;20494;-81
2021/03/29 03:50:10;;;;;;;3.37;2.00;;;6.70;76.90;;;;;;5097119;28;20451;-81
2021/03/29 03:52:36;;;;;;;2.10;1.60;;;6.70;78.40;;;;;;5097333;28;20864;-81
2021/03/29 03:55:04;;;;;;;2.37;1.60;;;6.70;77.90;;;;;;5097259;28;20452;-81
2021/03/29 03:57:30;;;;;;;2.87;1.40;;;6.60;78.20;;;;;;5097157;28;20893;-81
2021/03/29 03:59:57;;;;;;;2.50;1.73;;;6.50;77.90;;;;;;5096635;28;20482;-81
2021/03/29 04:02:24;;;;;;;1.63;1.50;;;6.50;77.80;;;;;;5097071;28;20440;-80
2021/03/29 04:04:50;;;;;;;1.60;1.50;;;6.50;78.30;;;;;;5096667;28;20965;-81
2021/03/29 04:07:17;;;;;;;6.77;2.17;;;6.40;79.20;;;;;;5096998;28;20532;-81
2021/03/29 04:09:45;;;;;;;3.90;2.30;;;6.30;80.40;;;;;;5096968;28;20436;-81
2021/03/29 04:12:12;;;;;;;7.27;1.87;;;6.20;81.30;;;;;;5096783;28;20440;-81
2021/03/29 04:14:39;;;;;;;2.50;1.97;;;6.10;80.40;;;;;;5096743;28;20447;-80
2021/03/29 04:17:06;;;;;;;2.47;2.10;;;6.00;81.40;;;;;;5096718;28;20432;-80
2021/03/29 04:19:33;;;;;;;4.00;2.03;;;6.00;82.60;;;;;;5096309;28;20583;-81
2021/03/29 04:22:00;;;;;;;2.33;1.63;;;5.90;82.80;;;;;;5096421;28;20977;-81
2021/03/29 04:24:27;;;;;;;2.17;1.90;;;5.90;83.80;;;;;;5096451;28;20769;-81
2021/03/29 04:26:53;;;;;;;2.20;1.40;;;5.80;84.30;;;;;;5096348;28;20451;-81
2021/03/29 04:29:19;;;;;;;2.20;1.83;;;5.80;84.10;;;;;;5096323;28;20472;-81
2021/03/29 04:31:46;;;;;;;2.33;2.10;;;5.80;83.50;;;;;;5096475;28;20462;-81
2021/03/29 04:34:12;;;;;;;4.03;1.93;;;5.80;85.00;;;;;;5096276;28;20451;-81
2021/03/29 04:36:39;;;;;;;1.93;1.30;;;5.70;84.30;;;;;;5096511;28;20440;-80
2021/03/29 04:39:06;;;;;;;2.20;2.00;;;5.70;85.50;;;;;;5095924;28;20530;-80
2021/03/29 04:41:32;;;;;;;2.70;1.70;;;5.70;85.20;;;;;;5096333;28;20451;-81
2021/03/29 04:43:59;;;;;;;4.10;1.83;;;5.70;86.40;;;;;;5096229;28;20466;-80
2021/03/29 04:46:25;;;;;;;1.57;1.47;;;5.70;86.70;;;;;;5096265;28;20484;-80
2021/03/29 04:48:51;;;;;;;2.43;1.40;;;5.70;88.00;;;;;;5096206;28;20462;-81
2021/03/29 04:51:18;;;;;;;5.00;1.90;;;5.80;87.70;;;;;;5096022;28;20454;-81
2021/03/29 04:53:45;;;;;;;2.30;1.70;;;5.80;88.20;;;;;;5096168;28;20451;-81
2021/03/29 04:56:11;;;;;;;4.93;2.13;;;5.80;88.40;;;;;;5096084;28;20440;-81
2021/03/29 04:58:37;;;;;;;7.00;2.20;;;5.80;88.30;;;;;;5095423;28;20967;-81
2021/03/29 05:01:04;;;;;;;3.77;2.40;;;5.70;90.00;;;;;;5096119;28;20858;-81
2021/03/29 05:03:30;;;;;;;4.67;2.53;;;5.80;90.10;;;;;;5095646;28;20436;-81
2021/03/29 05:05:56;;;;;;;1.87;1.73;;;5.80;90.30;;;;;;5095621;28;20525;-81
2021/03/29 05:08:23;;;;;;;2.73;2.53;;;5.70;90.10;;;;;;5095466;28;21039;-81
2021/03/29 05:10:50;;;;;;;4.77;2.80;;;5.80;90.20;;;;;;5095717;28;20448;-81
2021/03/29 05:13:16;;;;;;;4.13;2.50;;;5.70;90.50;;;;;;5095789;28;20451;-81
2021/03/29 05:15:42;;;;;;;2.90;1.93;;;5.80;90.40;;;;;;5095540;28;20509;-81
2021/03/29 05:18:09;;;;;;;2.70;2.00;;;5.80;90.30;;;;;;5095399;28;20442;-81
2021/03/29 05:20:35;;;;;;;2.07;1.90;;;5.80;89.20;;;;;;5095486;28;20454;-81
2021/03/29 05:23:01;;;;;;;1.83;1.73;;;5.80;90.10;;;;;;5095312;28;20444;-81
2021/03/29 05:25:27;;;;;;;3.13;1.80;;;5.80;90.50;;;;;;5095519;28;20436;-81
2021/03/29 05:27:55;;;;;;;3.30;1.80;;;5.80;90.90;;;;;;5095474;28;20811;-81
2021/03/29 05:30:21;;;;;;;2.93;2.63;;;5.80;91.50;;;;;;5095337;28;20473;-80
2021/03/29 05:32:48;;;;;;;2.00;1.80;;;5.90;91.30;;;;;;5095246;28;20436;-81
2021/03/29 05:35:14;;;;;;;4.50;2.33;;;5.90;91.20;;;;;;5095845;28;20526;-81
2021/03/29 05:37:40;;;;;;;3.17;2.57;;;6.00;91.70;;;;;;5095057;28;20513;-81
2021/03/29 05:40:09;;;;;;;4.37;2.93;;;6.00;91.90;;;;;;5095119;28;20548;-81
2021/03/29 05:42:35;;;;;;;3.10;2.60;;;6.00;92.00;;;;;;5094783;28;20963;-80
2021/03/29 05:45:07;;;;;;;5.00;2.60;;;6.00;92.10;;;;;;5094852;28;20483;-81
2021/03/29 05:47:33;;;;;;;4.50;2.90;;;6.10;92.20;;;;;;5094875;28;20856;-81
2021/03/29 05:50:03;;;;;;;6.60;3.43;;;6.10;92.40;;;;;;5095013;28;20527;-81
2021/03/29 05:52:29;;;;;;;4.20;3.20;;;6.20;92.90;;;;;;5094665;28;20459;-81
2021/03/29 05:54:56;;;;;;;2.97;2.53;;;6.30;93.20;;;;;;5094636;28;20463;-81
2021/03/29 05:57:23;;;;;;;3.40;3.10;;;6.40;92.70;;;;;;5094726;28;20452;-81
2021/03/29 05:59:50;;;;;;;5.37;3.40;;;6.50;93.20;;;;;;5094429;28;20506;-81
2021/03/29 06:02:31;;;;;;;3.80;3.17;;;6.60;92.80;;;;;;5094901;28;20471;-81
2021/03/29 06:04:57;;;;;;;6.10;3.37;;;6.70;92.80;;;;;;5094648;28;20479;-81
2021/03/29 06:07:25;;;;;;;5.00;3.40;;;6.80;92.50;;;;;;5094552;28;20448;-81
2021/03/29 06:09:53;;;;;;;6.13;3.97;;;6.90;92.00;;;;;;5093854;28;20444;-81
2021/03/29 06:12:22;;;;;;;2.90;2.70;;;7.00;93.00;;;;;;5094504;28;20439;-80
2021/03/29 06:14:59;;;;;;;3.60;3.30;;;7.10;92.80;;;;;;5094501;28;20984;-80
2021/03/29 06:17:25;;;;;;;7.43;4.33;;;7.20;92.40;;;;;;5094721;28;20466;-80
2021/03/29 06:19:57;;;;;;;7.10;3.27;;;7.20;91.80;;;;;;5094378;28;20490;-81
2021/03/29 06:22:25;;;;;;;4.73;3.00;;;7.30;91.90;;;;;;5094512;28;20424;-80
2021/03/29 06:25:05;;;;;;;6.40;3.43;;;7.50;92.20;;;;;;5094383;28;20440;-80
2021/03/29 06:27:37;;;;;;;5.63;3.33;;;7.60;92.50;;;;;;5094166;28;20440;-81
2021/03/29 06:30:16;;;;;;;6.23;4.00;;;7.90;92.20;;;;;;5093961;28;20900;-80
2021/03/29 06:32:56;;;;;;;6.37;4.00;;;8.20;91.80;;;;;;5093995;28;20955;-80
2021/03/29 06:35:26;;;;;;;6.57;3.50;;;9.10;90.40;;;;;;5096477;28;20432;-80
2021/03/29 06:37:52;;;;;;;6.63;3.63;;;9.70;87.40;;;;;;5094186;28;20451;-80
2021/03/29 06:40:19;;;;;;;7.30;3.90;;;10.00;83.30;;;;;;5094045;28;20475;-81
2021/03/29 06:42:45;;;;;;;3.70;3.27;;;10.00;83.60;;;;;;5093786;28;20452;-81
2021/03/29 06:45:13;;;;;;;5.20;3.23;;;9.90;85.30;;;;;;5093557;28;20454;-81
2021/03/29 06:47:40;;;;;;;3.17;2.73;;;9.80;84.30;;;;;;5093602;28;20853;-81
2021/03/29 06:50:12;;;;;;;4.43;3.13;;;9.80;84.60;;;;;;5093860;28;20448;-81
2021/03/29 06:52:39;;;;;;;5.30;3.10;;;9.80;85.20;;;;;;5093848;28;20489;-81
2021/03/29 06:55:20;;;;;;;4.63;3.07;;;9.70;86.00;;;;;;5093571;28;20433;-81
2021/03/29 06:57:59;;;;;;;4.97;3.50;;;9.80;86.10;;;;;;5093821;28;20444;-80
2021/03/29 07:00:30;;;;;;;6.13;3.33;;;9.90;84.40;;;;;;5093702;28;20486;-81
2021/03/29 07:03:00;;;;;;;6.67;3.30;;;9.80;83.10;;;;;;5093667;28;20456;-81
2021/03/29 07:05:27;;;;;;;5.23;3.27;;;9.90;83.30;;;;;;5093602;28;20954;-81
2021/03/29 07:07:55;;;;;;;7.47;3.10;;;10.00;80.10;;;;;;5093627;28;20459;-81
2021/03/29 07:10:21;;;;;;;4.03;3.60;;;10.10;80.50;;;;;;5093304;28;20436;-81
2021/03/29 07:12:48;;;;;;;3.83;2.70;;;10.20;79.40;;;;;;5093268;28;20424;-81
2021/03/29 07:15:15;;;;;;;3.13;2.20;;;10.40;79.80;;;;;;5093560;28;20432;-81
2021/03/29 07:17:43;;;;;;;2.17;1.77;;;10.60;76.50;;;;;;5093221;28;20478;-81
2021/03/29 07:20:12;;;;;;;2.00;1.77;;;10.80;72.80;;;;;;5093481;28;20479;-80
2021/03/29 07:22:40;;;;;;;2.40;1.73;;;11.00;70.60;;;;;;5093520;28;20455;-80
2021/03/29 07:25:10;;;;;;;3.47;1.50;;;11.10;69.00;;;;;;5093107;28;20451;-80
2021/03/29 07:27:44;;;;;;;2.40;1.87;;;11.00;66.30;;;;;;5092837;28;20966;-80
2021/03/29 07:30:14;;;;;;;2.10;1.57;;;11.30;68.10;;;;;;5093142;28;20926;-80
2021/03/29 07:32:41;;;;;;;2.60;1.37;;;11.30;66.10;;;;;;5093340;28;20429;-80
2021/03/29 07:35:09;;;;;;;1.63;1.40;;;11.50;65.90;;;;;;5093260;28;20478;-80
2021/03/29 07:37:39;;;;;;;3.33;1.27;;;11.60;66.50;;;;;;5093175;28;20420;-79
2021/03/29 07:40:28;;;;;;;1.57;1.47;;;11.70;65.60;;;;;;5093178;28;20512;-80
2021/03/29 07:43:05;;;;;;;1.83;1.30;;;11.70;64.90;;;;;;5092662;28;20448;-80
2021/03/29 07:45:47;;;;;;;6.53;1.90;;;11.80;64.60;;;;;;5093189;28;20521;-80
2021/03/29 07:48:37;;;;;;;1.47;1.37;;;12.00;64.10;;;;;;5093639;28;20464;-80
2021/03/29 07:51:06;;;;;;;1.33;1.23;;;12.20;64.40;;;;;;5093290;28;20443;-80
2021/03/29 07:53:41;;;;;;;1.80;1.70;;;12.40;62.50;;;;;;5093020;28;20596;-80
2021/03/29 07:56:09;;;;;;;4.43;2.03;;;12.50;62.30;;;;;;5092992;28;20427;-81
2021/03/29 07:58:45;;;;;;;3.00;1.80;;;12.90;62.00;;;;;;5092823;28;20499;-80
2021/03/29 08:01:13;;;;;;;1.30;1.17;;;13.10;61.70;;;;;;5093983;28;20444;-80
2021/03/29 08:03:53;;;;;;;1.50;1.40;;;13.30;60.40;;;;;;5093037;28;20451;-80
2021/03/29 08:06:44;;;;;;;3.17;1.53;;;13.70;60.30;;;;;;5092943;28;20463;-80
2021/03/29 08:09:13;;;;;;;3.50;1.57;;;14.00;59.40;;;;;;5093597;28;20518;-80
2021/03/29 08:12:05;;;;;;;1.83;1.40;;;14.30;58.80;;;;;;5092705;28;20428;-81
2021/03/29 08:14:37;;;;;;;1.70;1.60;;;14.10;58.70;;;;;;5092930;28;20539;-81
2021/03/29 08:17:50;;;;;;;2.40;1.90;;;14.10;58.90;;;;;;5092921;28;20501;-80
2021/03/29 08:20:23;;;;;;;3.30;1.90;;;14.00;59.80;;;;;;5056672;28;20491;-80
2021/03/29 08:23:26;;;;;;;2.60;1.60;;;14.10;60.10;;;;;;5092874;28;20440;-80
2021/03/29 08:26:09;;;;;;;2.60;1.80;;;14.20;60.40;;;;;;5092753;28;20446;-80
2021/03/29 08:29:13;;;;;;;2.50;1.60;;;14.50;60.80;;;;;;5092710;28;20471;-80
2021/03/29 08:32:13;;;;;;;1.67;1.57;;;14.50;60.60;;;;;;5093087;28;20805;-80
2021/03/29 08:34:46;;;;;;;2.90;1.60;;;14.50;60.10;;;;;;5096538;28;20428;-80
2021/03/29 08:37:14;;;;;;;3.43;2.60;;;14.50;60.50;;;;;;5096823;28;20450;-80
2021/03/29 08:39:41;;;;;;;2.50;1.60;;;14.60;59.30;;;;;;5096195;28;20593;-80
2021/03/29 08:42:08;;;;;;;2.20;1.40;;;14.70;60.00;;;;;;5096109;28;20790;-80
2021/03/29 08:44:40;;;;;;;3.80;1.63;;;14.80;58.90;;;;;;5096393;28;20448;-81
2021/03/29 08:47:11;;;;;;;2.53;1.50;;;15.10;60.40;;;;;;5095937;28;20479;-81
2021/03/29 08:49:39;;;;;;;1.80;1.43;;;15.30;57.20;;;;;;5096187;28;20493;-80
2021/03/29 08:52:06;;;;;;;5.13;3.67;;;15.30;56.40;;;;;;5096008;28;20926;-81
2021/03/29 08:54:33;;;;;;;3.33;1.30;;;15.60;58.40;;;;;;5096315;28;20436;-81
2021/03/29 08:57:04;;;;;;;2.97;1.33;;;15.90;55.80;;;;;;5095923;28;20413;-81
2021/03/29 08:59:31;;;;;;;3.07;1.57;;;16.40;54.80;;;;;;5096154;28;20490;-81
2021/03/29 09:01:59;;;;;;;5.70;2.17;;;16.80;52.80;;;;;;5096093;28;20436;-81
2021/03/29 09:04:25;;;;;;;2.60;1.30;;;17.40;50.60;;;;;;5095930;28;20922;-81
2021/03/29 09:06:56;;;;;;;1.73;1.10;;;19.00;49.30;;;;;;5097059;28;20436;-83
2021/03/29 09:09:23;;;;;;;1.87;1.33;;;20.60;45.90;;;;;;5097098;28;20858;-83
2021/03/29 09:11:52;;;;;;;3.63;1.30;;;22.80;44.20;;;;;;5097456;28;20423;-84
2021/03/29 09:14:20;;;;;;;1.85;1.10;;;24.70;39.90;;;;;;5096886;28;20197;-84
2021/03/29 09:16:46;;;;;;;2.67;1.10;;;26.20;36.90;;;;;;5096700;28;20601;-84
2021/03/29 09:19:18;;;;;;;1.73;1.00;;;27.30;34.70;;;;;;5096111;28;20222;-84
2021/03/29 09:21:52;;;;;;;1.50;1.05;;;27.60;33.40;;;;;;5096086;28;20189;-83
2021/03/29 09:24:19;;;;;;;2.25;1.00;;;27.40;33.80;;;;;;5096015;28;20190;-84
2021/03/29 09:26:55;;;;;;;1.42;1.33;;;27.80;33.00;;;;;;5096795;28;20203;-84
2021/03/29 09:29:32;;;;;;;1.15;0.98;;;27.40;31.70;;;;;;5095974;28;20376;-83
2021/03/29 09:32:05;;;;;;;1.73;1.10;;;27.90;32.70;;;;;;5096033;28;20541;-84
2021/03/29 09:34:36;;;;;;;2.22;1.05;;;28.20;30.00;;;;;;5095975;28;20193;-84
2021/03/29 09:37:03;;;;;;;3.58;1.08;;;28.40;29.70;;;;;;5096041;28;20293;-81
2021/03/29 09:39:31;;;;;;;2.38;1.27;;;28.20;30.80;;;;;;5095644;28;20231;-81
2021/03/29 09:41:59;;;;;;;1.52;1.10;;;28.90;29.60;;;;;;5095588;28;20200;-81
2021/03/29 09:44:29;;;;;;;3.53;1.52;;;29.70;29.50;;;;;;5094825;28;20206;-81
2021/03/29 09:46:57;;;;;;;2.17;1.17;;;30.20;27.50;;;;;;5095281;28;20268;-81
2021/03/29 09:49:24;;;;;;;0.93;0.88;;;31.00;28.00;;;;;;5095224;28;20599;-81
2021/03/29 09:52:02;;;;;;;2.05;1.17;;;31.90;26.50;;;;;;5095029;28;20186;-81
2021/03/29 09:54:31;;;;;;;1.20;1.05;;;31.40;26.90;;;;;;5095332;28;20181;-81
2021/03/29 09:56:59;;;;;;;1.63;1.35;;;31.10;25.50;;;;;;5095389;28;20192;-81
2021/03/29 09:59:30;;;;;;;1.40;1.13;;;30.70;26.80;;;;;;5096111;28;20226;-82
2021/03/29 10:01:58;;;;;;;3.38;1.38;;;30.50;26.50;;;;;;5096371;28;20190;-82
2021/03/29 10:04:24;;;;;;;1.30;1.00;;;29.70;27.20;;;;;;5096320;28;20232;-82
2021/03/29 10:06:53;;;;;;;1.25;1.15;;;29.70;28.00;;;;;;5096437;28;20186;-82
2021/03/29 10:09:33;;;;;;;1.52;1.38;;;30.40;27.50;;;;;;5096733;28;20252;-82
2021/03/29 10:12:00;;;;;;;1.08;1.00;;;30.40;27.00;;;;;;5095025;28;20248;-81
2021/03/29 10:14:34;;;;;;;2.85;1.25;;;29.70;27.10;;;;;;5095130;28;20201;-82
2021/03/29 10:17:01;;;;;;;1.83;1.00;;;29.50;26.80;;;;;;5094901;28;20242;-82
2021/03/29 10:19:33;;;;;;;1.70;1.17;;;29.00;27.60;;;;;;5094496;28;20223;-82
2021/03/29 10:22:04;;;;;;;1.10;1.00;;;28.90;28.50;;;;;;5094587;28;20186;-83
2021/03/29 10:24:31;;;;;;;3.08;1.50;;;28.60;27.90;;;;;;5094830;28;20190;-83
2021/03/29 10:27:00;;;;;;;1.27;0.82;;;29.30;28.20;;;;;;5094633;28;20231;-83
2021/03/29 10:29:35;;;;;;;1.42;1.00;;;30.00;27.60;;;;;;5094736;28;20227;-83
2021/03/29 10:32:02;;;;;;;3.03;1.40;;;30.10;28.20;;;;;;5094898;28;20253;-82
2021/03/29 10:34:29;;;;;;;1.30;1.20;;;30.20;27.50;;;;;;5094847;28;20236;-83
2021/03/29 10:36:55;;;;;;;2.47;1.10;;;30.20;28.30;;;;;;5094860;28;20189;-82
2021/03/29 10:39:22;;;;;;;1.17;1.05;;;30.00;27.50;;;;;;5094154;28;20734;-83
2021/03/29 10:41:49;;;;;;;2.25;1.13;;;29.80;27.50;;;;;;5094764;28;20178;-82
2021/03/29 10:44:15;;;;;;;1.15;0.88;;;29.70;26.40;;;;;;5094980;28;20190;-82
2021/03/29 10:46:42;;;;;;;0.90;0.90;;;29.50;25.90;;;;;;5094538;28;20233;-83
2021/03/29 10:49:09;;;;;;;1.15;1.05;;;29.80;26.50;;;;;;5094112;28;20243;-83
2021/03/29 10:51:35;;;;;;;1.02;1.02;;;29.80;27.00;;;;;;5094387;28;20203;-83
2021/03/29 10:54:02;;;;;;;1.92;1.55;;;30.10;26.30;;;;;;5094420;28;20194;-83
2021/03/29 10:56:29;;;;;;;0.82;0.80;;;31.00;25.40;;;;;;5093949;28;20179;-82
2021/03/29 10:58:55;;;;;;;5.45;1.00;;;30.50;25.20;;;;;;5094591;28;20239;-82
2021/03/29 11:01:22;;;;;;;2.05;1.10;;;31.30;25.70;;;;;;5094491;28;20188;-83
2021/03/29 11:03:48;;;;;;;2.55;1.05;;;31.50;25.50;;;;;;5094270;28;20251;-80
2021/03/29 11:06:14;;;;;;;2.80;1.30;;;31.30;24.30;;;;;;5093968;28;20184;-80
2021/03/29 11:08:41;;;;;;;1.10;1.00;;;30.70;25.30;;;;;;5093718;28;20225;-81
2021/03/29 11:11:07;;;;;;;3.30;1.40;;;29.30;26.40;;;;;;5094062;28;20194;-82
2021/03/29 11:13:34;;;;;;;1.83;1.42;;;28.50;26.30;;;;;;5093919;28;20186;-82
2021/03/29 11:16:02;;;;;;;2.05;1.02;;;27.50;27.40;;;;;;5094070;28;20233;-81
2021/03/29 11:18:28;;;;;;;1.63;1.00;;;26.50;29.30;;;;;;5093970;28;20270;-82
2021/03/29 11:20:55;;;;;;;1.15;0.90;;;25.50;28.90;;;;;;5093980;28;20212;-81
2021/03/29 11:23:25;;;;;;;1.65;1.15;;;24.70;30.50;;;;;;5093802;28;20186;-82
2021/03/29 11:25:51;;;;;;;2.65;2.22;;;24.40;30.70;;;;;;5094638;28;20531;-81
2021/03/29 11:28:18;;;;;;;1.85;0.98;;;23.80;31.30;;;;;;5093413;28;20708;-81
2021/03/29 11:30:45;;;;;;;1.13;1.03;;;23.20;31.40;;;;;;5093869;28;20580;-81
2021/03/29 11:33:11;;;;;;;1.27;0.93;;;22.90;32.60;;;;;;5093622;28;20629;-81
2021/03/29 11:35:37;;;;;;;1.40;0.80;;;22.70;32.50;;;;;;5093790;28;20184;-81
2021/03/29 11:38:04;;;;;;;2.00;1.10;;;22.60;32.70;;;;;;5093306;28;20716;-81
2021/03/29 11:40:30;;;;;;;2.07;1.33;;;22.40;33.80;;;;;;5093566;28;20467;-81
2021/03/29 11:42:56;;;;;;;1.17;1.03;;;22.10;33.00;;;;;;5093317;28;20922;-82
2021/03/29 11:45:23;;;;;;;2.93;1.20;;;22.00;34.50;;;;;;5093491;28;20447;-81
2021/03/29 11:47:50;;;;;;;1.03;0.90;;;21.90;34.40;;;;;;5093415;28;20478;-81
2021/03/29 11:50:17;;;;;;;1.40;1.10;;;21.90;34.30;;;;;;5093683;28;20419;-81
2021/03/29 11:52:44;;;;;;;1.63;1.20;;;21.70;34.20;;;;;;5093527;28;20431;-82
2021/03/29 11:55:11;;;;;;;2.30;2.00;;;21.50;34.00;;;;;;5094391;28;20432;-81
2021/03/29 11:57:39;;;;;;;3.93;1.40;;;21.20;34.90;;;;;;5093889;28;20501;-81
2021/03/29 12:00:09;;;;;;;2.67;1.40;;;21.00;35.70;;;;;;5093022;28;20476;-81
2021/03/29 12:02:38;;;;;;;1.53;1.43;;;20.90;36.30;;;;;;5093556;28;20462;-81
2021/03/29 12:05:10;;;;;;;5.40;1.40;;;20.90;36.00;;;;;;5093388;28;20428;-81
2021/03/29 12:07:44;;;;;;;3.60;1.40;;;20.90;35.50;;;;;;5095636;28;20432;-82
2021/03/29 12:12:56;;;;;;;1.90;1.40;;;20.80;36.10;;;;;;5097624;28;20431;-81
2021/03/29 12:15:24;;;;;;;2.07;1.40;;;20.60;35.10;;;;;;5097418;28;20511;-81
2021/03/29 12:17:51;;;;;;;1.37;1.27;;;20.50;35.70;;;;;;5097214;28;20560;-81
2021/03/29 12:20:18;;;;;;;6.50;1.40;;;20.40;37.40;;;;;;5097091;28;20471;-80
2021/03/29 12:22:47;;;;;;;3.60;1.50;;;20.40;37.10;;;;;;5097572;28;20838;-81
2021/03/29 12:25:17;;;;;;;2.17;1.63;;;20.20;36.20;;;;;;5097173;28;20439;-81
2021/03/29 12:27:43;;;;;;;4.10;1.13;;;20.10;36.90;;;;;;5096727;28;20986;-80
2021/03/29 12:30:14;;;;;;;1.60;1.30;;;20.10;37.00;;;;;;5096732;28;20974;-80
2021/03/29 12:32:42;;;;;;;3.07;1.60;;;20.00;36.40;;;;;;5096993;28;20790;-81
2021/03/29 12:35:12;;;;;;;1.47;1.37;;;20.00;38.50;;;;;;5096589;28;20930;-84
2021/03/29 12:37:39;;;;;;;1.70;1.40;;;19.90;38.40;;;;;;5096891;28;20455;-81
2021/03/29 12:40:10;;;;;;;2.77;1.40;;;19.80;37.20;;;;;;5096961;28;20475;-81
2021/03/29 12:42:47;;;;;;;3.50;1.20;;;19.70;38.30;;;;;;5096778;28;20493;-80
2021/03/29 12:45:21;;;;;;;1.80;1.30;;;19.70;37.90;;;;;;5096718;28;20435;-81
2021/03/29 12:47:47;;;;;;;1.57;1.47;;;19.50;36.20;;;;;;5096400;28;20479;-80
2021/03/29 12:50:15;;;;;;;1.20;1.10;;;19.40;36.60;;;;;;5096687;28;20454;-81
2021/03/29 12:52:43;;;;;;;2.30;1.30;;;19.30;36.20;;;;;;5096717;28;20434;-81
2021/03/29 12:55:13;;;;;;;2.20;1.47;;;19.20;37.40;;;;;;5096515;28;20436;-81
2021/03/29 12:57:40;;;;;;;4.03;1.00;;;19.20;38.00;;;;;;5096112;28;20907;-80
2021/03/29 13:00:08;;;;;;;1.40;1.30;;;19.10;38.10;;;;;;5096172;28;20464;-80
2021/03/29 13:02:36;;;;;;;2.57;1.47;;;18.90;37.30;;;;;;5096077;28;20439;-81
2021/03/29 13:05:03;;;;;;;1.53;1.40;;;18.90;39.20;;;;;;5096377;28;20443;-80